Terminal Aerodrome Forecast
Issued by NWS Wilmington, OH

Current Version | Previous Version | Text Only | Print | Product List | Glossary Off
Versions: 1 2 3 4 5 6 7 8 9 10 11 12 13 14 15 16 17 18

000
FTUS41 KILN 211730
TAFILN
TAF
KILN 211730Z 2118/2218 22016G27KT P6SM SCT120 BKN250
     FM212300 24010G16KT P6SM BKN250
     FM220200 28009KT P6SM BKN050
     FM220300 30010KT P6SM VCSH OVC025
     FM220600 32009KT P6SM BKN050
     FM221400 36008KT P6SM FEW025=

USA.gov is the U.S. government's official web portal to all federal, state and local government web resources and services.